sensor_id;sensor_type;location;lat;lon;timestamp;temperature;humidity
16846;DHT22;8539;53.188;8.696;2024-02-21T00:00:03;8.70;99.90
16846;DHT22;8539;53.188;8.696;2024-02-21T00:02:31;8.70;99.90
16846;DHT22;8539;53.188;8.696;2024-02-21T00:04:58;8.70;99.90
16846;DHT22;8539;53.188;8.696;2024-02-21T00:07:26;8.70;99.90
16846;DHT22;8539;53.188;8.696;2024-02-21T00:09:53;8.70;99.90
16846;DHT22;8539;53.188;8.696;2024-02-21T00:12:20;8.70;99.90
16846;DHT22;8539;53.188;8.696;2024-02-21T00:14:48;8.70;99.90
16846;DHT22;8539;53.188;8.696;2024-02-21T00:17:15;8.70;99.90
16846;DHT22;8539;53.188;8.696;2024-02-21T00:19:43;8.60;99.90
16846;DHT22;8539;53.188;8.696;2024-02-21T00:22:10;8.70;99.90
16846;DHT22;8539;53.188;8.696;2024-02-21T00:24:38;8.70;99.90
16846;DHT22;8539;53.188;8.696;2024-02-21T00:27:05;8.70;99.90
16846;DHT22;8539;53.188;8.696;2024-02-21T00:29:33;8.70;99.90
16846;DHT22;8539;53.188;8.696;2024-02-21T00:32:01;8.70;99.90
16846;DHT22;8539;53.188;8.696;2024-02-21T00:34:29;8.70;99.90
16846;DHT22;8539;53.188;8.696;2024-02-21T00:36:56;8.70;99.90
16846;DHT22;8539;53.188;8.696;2024-02-21T00:39:24;8.70;99.90
16846;DHT22;8539;53.188;8.696;2024-02-21T00:41:51;8.70;99.90
16846;DHT22;8539;53.188;8.696;2024-02-21T00:44:19;8.70;99.90
16846;DHT22;8539;53.188;8.696;2024-02-21T00:46:46;8.70;99.90
16846;DHT22;8539;53.188;8.696;2024-02-21T00:49:14;8.70;99.90
16846;DHT22;8539;53.188;8.696;2024-02-21T00:51:41;8.80;99.90
16846;DHT22;8539;53.188;8.696;2024-02-21T00:54:09;8.70;99.90
16846;DHT22;8539;53.188;8.696;2024-02-21T00:56:36;8.70;99.90
16846;DHT22;8539;53.188;8.696;2024-02-21T00:59:03;8.70;99.90
16846;DHT22;8539;53.188;8.696;2024-02-21T01:01:31;8.80;99.90
16846;DHT22;8539;53.188;8.696;2024-02-21T01:03:58;8.70;99.90
16846;DHT22;8539;53.188;8.696;2024-02-21T01:06:26;8.70;99.90
16846;DHT22;8539;53.188;8.696;2024-02-21T01:08:54;8.70;99.90
16846;DHT22;8539;53.188;8.696;2024-02-21T01:11:23;8.80;99.90
16846;DHT22;8539;53.188;8.696;2024-02-21T01:13:51;8.80;99.90
16846;DHT22;8539;53.188;8.696;2024-02-21T01:16:19;8.80;99.90
16846;DHT22;8539;53.188;8.696;2024-02-21T01:18:46;8.80;99.90
16846;DHT22;8539;53.188;8.696;2024-02-21T01:21:14;8.80;99.90
16846;DHT22;8539;53.188;8.696;2024-02-21T01:23:41;8.80;99.90
16846;DHT22;8539;53.188;8.696;2024-02-21T01:26:10;8.80;99.90
16846;DHT22;8539;53.188;8.696;2024-02-21T01:28:42;8.80;99.90
16846;DHT22;8539;53.188;8.696;2024-02-21T01:31:10;8.80;99.90
16846;DHT22;8539;53.188;8.696;2024-02-21T01:33:38;8.80;99.90
16846;DHT22;8539;53.188;8.696;2024-02-21T01:36:06;8.80;99.90
16846;DHT22;8539;53.188;8.696;2024-02-21T01:38:34;8.80;99.90
16846;DHT22;8539;53.188;8.696;2024-02-21T01:41:02;8.80;99.90
16846;DHT22;8539;53.188;8.696;2024-02-21T01:43:29;8.80;99.90
16846;DHT22;8539;53.188;8.696;2024-02-21T01:45:57;8.80;99.90
16846;DHT22;8539;53.188;8.696;2024-02-21T01:48:25;8.80;99.90
16846;DHT22;8539;53.188;8.696;2024-02-21T01:50:55;8.80;99.90
16846;DHT22;8539;53.188;8.696;2024-02-21T01:53:30;8.80;99.90
16846;DHT22;8539;53.188;8.696;2024-02-21T01:55:58;8.80;99.90
16846;DHT22;8539;53.188;8.696;2024-02-21T01:58:26;8.80;99.90
16846;DHT22;8539;53.188;8.696;2024-02-21T02:00:56;8.80;99.90
16846;DHT22;8539;53.188;8.696;2024-02-21T02:03:25;8.80;99.90
16846;DHT22;8539;53.188;8.696;2024-02-21T02:05:52;8.70;99.90
16846;DHT22;8539;53.188;8.696;2024-02-21T02:08:20;8.70;99.90
16846;DHT22;8539;53.188;8.696;2024-02-21T02:10:49;8.70;99.90
16846;DHT22;8539;53.188;8.696;2024-02-21T02:13:17;8.80;99.90
16846;DHT22;8539;53.188;8.696;2024-02-21T02:15:45;8.70;99.90
16846;DHT22;8539;53.188;8.696;2024-02-21T02:18:14;8.70;99.90
16846;DHT22;8539;53.188;8.696;2024-02-21T02:20:43;8.80;99.90
16846;DHT22;8539;53.188;8.696;2024-02-21T02:25:45;8.70;99.90
16846;DHT22;8539;53.188;8.696;2024-02-21T02:28:16;8.70;99.90
16846;DHT22;8539;53.188;8.696;2024-02-21T02:30:44;8.70;99.90
16846;DHT22;8539;53.188;8.696;2024-02-21T02:33:11;8.80;99.90
16846;DHT22;8539;53.188;8.696;2024-02-21T02:35:39;8.80;99.90
16846;DHT22;8539;53.188;8.696;2024-02-21T02:38:06;8.80;99.90
16846;DHT22;8539;53.188;8.696;2024-02-21T02:40:34;8.80;99.90
16846;DHT22;8539;53.188;8.696;2024-02-21T02:43:02;8.80;99.90
16846;DHT22;8539;53.188;8.696;2024-02-21T02:45:30;8.80;99.90
16846;DHT22;8539;53.188;8.696;2024-02-21T02:47:58;8.70;99.90
16846;DHT22;8539;53.188;8.696;2024-02-21T02:50:27;8.80;99.90
16846;DHT22;8539;53.188;8.696;2024-02-21T02:52:54;8.70;99.90
16846;DHT22;8539;53.188;8.696;2024-02-21T02:55:22;8.80;99.90
16846;DHT22;8539;53.188;8.696;2024-02-21T02:57:50;8.80;99.90
16846;DHT22;8539;53.188;8.696;2024-02-21T03:00:17;8.80;99.90
16846;DHT22;8539;53.188;8.696;2024-02-21T03:02:46;8.80;99.90
16846;DHT22;8539;53.188;8.696;2024-02-21T03:05:20;8.80;99.90
16846;DHT22;8539;53.188;8.696;2024-02-21T03:07:48;8.80;99.90
16846;DHT22;8539;53.188;8.696;2024-02-21T03:10:16;8.80;99.90
16846;DHT22;8539;53.188;8.696;2024-02-21T03:12:45;8.80;99.90
16846;DHT22;8539;53.188;8.696;2024-02-21T03:15:13;8.80;99.90
16846;DHT22;8539;53.188;8.696;2024-02-21T03:17:41;8.80;99.90
16846;DHT22;8539;53.188;8.696;2024-02-21T03:20:09;8.80;99.90
16846;DHT22;8539;53.188;8.696;2024-02-21T03:22:39;8.70;99.90
16846;DHT22;8539;53.188;8.696;2024-02-21T03:25:08;8.70;99.90
16846;DHT22;8539;53.188;8.696;2024-02-21T03:27:35;8.70;99.90
16846;DHT22;8539;53.188;8.696;2024-02-21T03:30:03;8.70;99.90
16846;DHT22;8539;53.188;8.696;2024-02-21T03:32:31;8.70;99.90
16846;DHT22;8539;53.188;8.696;2024-02-21T03:34:59;8.70;99.90
16846;DHT22;8539;53.188;8.696;2024-02-21T03:37:26;8.60;99.90
16846;DHT22;8539;53.188;8.696;2024-02-21T03:39:54;8.60;99.90
16846;DHT22;8539;53.188;8.696;2024-02-21T03:42:21;8.60;99.90
16846;DHT22;8539;53.188;8.696;2024-02-21T03:44:48;8.50;99.90
16846;DHT22;8539;53.188;8.696;2024-02-21T03:47:15;8.50;99.90
16846;DHT22;8539;53.188;8.696;2024-02-21T03:49:42;8.50;99.90
16846;DHT22;8539;53.188;8.696;2024-02-21T03:52:10;8.50;99.90
16846;DHT22;8539;53.188;8.696;2024-02-21T03:54:37;8.40;99.90
16846;DHT22;8539;53.188;8.696;2024-02-21T03:57:05;8.40;99.90
16846;DHT22;8539;53.188;8.696;2024-02-21T03:59:33;8.40;99.90
16846;DHT22;8539;53.188;8.696;2024-02-21T04:02:00;8.40;99.90
16846;DHT22;8539;53.188;8.696;2024-02-21T04:04:28;8.30;99.90
16846;DHT22;8539;53.188;8.696;2024-02-21T04:06:55;8.30;99.90
16846;DHT22;8539;53.188;8.696;2024-02-21T04:09:22;8.30;99.90
16846;DHT22;8539;53.188;8.696;2024-02-21T04:11:49;8.30;99.90
16846;DHT22;8539;53.188;8.696;2024-02-21T04:14:17;8.30;99.90
16846;DHT22;8539;53.188;8.696;2024-02-21T04:16:44;8.30;99.90
16846;DHT22;8539;53.188;8.696;2024-02-21T04:19:11;8.30;99.90
16846;DHT22;8539;53.188;8.696;2024-02-21T04:21:38;8.30;99.90
16846;DHT22;8539;53.188;8.696;2024-02-21T04:24:05;8.30;99.90
16846;DHT22;8539;53.188;8.696;2024-02-21T04:26:34;8.20;99.90
16846;DHT22;8539;53.188;8.696;2024-02-21T04:29:01;8.20;99.90
16846;DHT22;8539;53.188;8.696;2024-02-21T04:31:29;8.20;99.90
16846;DHT22;8539;53.188;8.696;2024-02-21T04:33:57;8.20;99.90
16846;DHT22;8539;53.188;8.696;2024-02-21T04:36:24;8.20;99.90
16846;DHT22;8539;53.188;8.696;2024-02-21T04:38:51;8.20;99.90
16846;DHT22;8539;53.188;8.696;2024-02-21T04:41:18;8.20;99.90
16846;DHT22;8539;53.188;8.696;2024-02-21T04:43:46;8.20;99.90
16846;DHT22;8539;53.188;8.696;2024-02-21T04:46:16;8.20;99.90
16846;DHT22;8539;53.188;8.696;2024-02-21T04:48:44;8.20;99.90
16846;DHT22;8539;53.188;8.696;2024-02-21T04:51:12;8.20;99.90
16846;DHT22;8539;53.188;8.696;2024-02-21T04:53:40;8.10;99.90
16846;DHT22;8539;53.188;8.696;2024-02-21T04:56:07;8.20;99.90
16846;DHT22;8539;53.188;8.696;2024-02-21T04:58:38;8.20;99.90
16846;DHT22;8539;53.188;8.696;2024-02-21T05:01:06;8.20;99.90
16846;DHT22;8539;53.188;8.696;2024-02-21T05:03:35;8.20;99.90
16846;DHT22;8539;53.188;8.696;2024-02-21T05:06:02;8.20;99.90
16846;DHT22;8539;53.188;8.696;2024-02-21T05:08:29;8.20;99.90
16846;DHT22;8539;53.188;8.696;2024-02-21T05:10:57;8.20;99.90
16846;DHT22;8539;53.188;8.696;2024-02-21T05:13:24;8.20;99.90
16846;DHT22;8539;53.188;8.696;2024-02-21T05:15:51;8.20;99.90
16846;DHT22;8539;53.188;8.696;2024-02-21T05:18:19;8.20;99.90
16846;DHT22;8539;53.188;8.696;2024-02-21T05:20:47;8.20;99.90
16846;DHT22;8539;53.188;8.696;2024-02-21T05:23:15;8.20;99.90
16846;DHT22;8539;53.188;8.696;2024-02-21T05:25:42;8.20;99.90
16846;DHT22;8539;53.188;8.696;2024-02-21T05:28:09;8.20;99.90
16846;DHT22;8539;53.188;8.696;2024-02-21T05:30:36;8.20;99.90
16846;DHT22;8539;53.188;8.696;2024-02-21T05:33:07;8.20;99.90
16846;DHT22;8539;53.188;8.696;2024-02-21T05:35:35;8.20;99.90
16846;DHT22;8539;53.188;8.696;2024-02-21T05:38:03;8.20;99.90
16846;DHT22;8539;53.188;8.696;2024-02-21T05:40:38;8.20;99.90
16846;DHT22;8539;53.188;8.696;2024-02-21T05:43:07;8.20;99.90
16846;DHT22;8539;53.188;8.696;2024-02-21T05:45:34;8.20;99.90
16846;DHT22;8539;53.188;8.696;2024-02-21T05:48:02;8.20;99.90
16846;DHT22;8539;53.188;8.696;2024-02-21T05:50:30;8.10;99.90
16846;DHT22;8539;53.188;8.696;2024-02-21T05:52:58;8.10;99.90
16846;DHT22;8539;53.188;8.696;2024-02-21T05:55:25;8.10;99.90
16846;DHT22;8539;53.188;8.696;2024-02-21T05:57:56;8.10;99.90
16846;DHT22;8539;53.188;8.696;2024-02-21T06:00:23;8.10;99.90
16846;DHT22;8539;53.188;8.696;2024-02-21T06:02:50;8.10;99.90
16846;DHT22;8539;53.188;8.696;2024-02-21T06:05:17;8.10;99.90
16846;DHT22;8539;53.188;8.696;2024-02-21T06:07:45;8.10;99.90
16846;DHT22;8539;53.188;8.696;2024-02-21T06:10:12;8.20;99.90
16846;DHT22;8539;53.188;8.696;2024-02-21T06:12:40;8.10;99.90
16846;DHT22;8539;53.188;8.696;2024-02-21T06:15:07;8.10;99.90
16846;DHT22;8539;53.188;8.696;2024-02-21T06:17:35;8.20;99.90
16846;DHT22;8539;53.188;8.696;2024-02-21T06:20:02;8.20;99.90
16846;DHT22;8539;53.188;8.696;2024-02-21T06:22:30;8.20;99.90
16846;DHT22;8539;53.188;8.696;2024-02-21T06:24:58;8.20;99.90
16846;DHT22;8539;53.188;8.696;2024-02-21T06:27:26;8.20;99.90
16846;DHT22;8539;53.188;8.696;2024-02-21T06:29:53;8.20;99.90
16846;DHT22;8539;53.188;8.696;2024-02-21T06:32:20;8.20;99.90
16846;DHT22;8539;53.188;8.696;2024-02-21T06:34:48;8.20;99.90
16846;DHT22;8539;53.188;8.696;2024-02-21T06:37:16;8.20;99.90
16846;DHT22;8539;53.188;8.696;2024-02-21T06:39:43;8.20;99.90
16846;DHT22;8539;53.188;8.696;2024-02-21T06:42:11;8.20;99.90
16846;DHT22;8539;53.188;8.696;2024-02-21T06:44:38;8.20;99.90
16846;DHT22;8539;53.188;8.696;2024-02-21T06:47:07;8.20;99.90
16846;DHT22;8539;53.188;8.696;2024-02-21T06:49:35;8.20;99.90
16846;DHT22;8539;53.188;8.696;2024-02-21T06:52:06;8.20;99.90
16846;DHT22;8539;53.188;8.696;2024-02-21T06:54:34;8.20;99.90
16846;DHT22;8539;53.188;8.696;2024-02-21T06:57:01;8.20;99.90
16846;DHT22;8539;53.188;8.696;2024-02-21T06:59:28;8.20;99.90
16846;DHT22;8539;53.188;8.696;2024-02-21T07:01:55;8.20;99.90
16846;DHT22;8539;53.188;8.696;2024-02-21T07:04:23;8.20;99.90
16846;DHT22;8539;53.188;8.696;2024-02-21T07:06:50;8.20;99.90
16846;DHT22;8539;53.188;8.696;2024-02-21T07:09:18;8.20;99.90
16846;DHT22;8539;53.188;8.696;2024-02-21T07:11:45;8.20;99.90
16846;DHT22;8539;53.188;8.696;2024-02-21T07:14:14;8.20;99.90
16846;DHT22;8539;53.188;8.696;2024-02-21T07:16:42;8.30;99.90
16846;DHT22;8539;53.188;8.696;2024-02-21T07:19:09;8.30;99.90
16846;DHT22;8539;53.188;8.696;2024-02-21T07:21:37;8.30;99.90
16846;DHT22;8539;53.188;8.696;2024-02-21T07:24:09;8.30;99.90
16846;DHT22;8539;53.188;8.696;2024-02-21T07:26:36;8.30;99.90
16846;DHT22;8539;53.188;8.696;2024-02-21T07:29:03;8.30;99.90
16846;DHT22;8539;53.188;8.696;2024-02-21T07:31:31;8.30;99.90
16846;DHT22;8539;53.188;8.696;2024-02-21T07:33:58;8.30;99.90
16846;DHT22;8539;53.188;8.696;2024-02-21T07:36:28;8.30;99.90
16846;DHT22;8539;53.188;8.696;2024-02-21T07:38:56;8.30;99.90
16846;DHT22;8539;53.188;8.696;2024-02-21T07:41:24;8.30;99.90
16846;DHT22;8539;53.188;8.696;2024-02-21T07:43:52;8.30;99.90
16846;DHT22;8539;53.188;8.696;2024-02-21T07:46:19;8.30;99.90
16846;DHT22;8539;53.188;8.696;2024-02-21T07:48:46;8.30;99.90
16846;DHT22;8539;53.188;8.696;2024-02-21T07:51:14;8.30;99.90
16846;DHT22;8539;53.188;8.696;2024-02-21T07:53:43;8.30;99.90
16846;DHT22;8539;53.188;8.696;2024-02-21T07:56:15;8.30;99.90
16846;DHT22;8539;53.188;8.696;2024-02-21T07:58:42;8.30;99.90
16846;DHT22;8539;53.188;8.696;2024-02-21T08:01:10;8.30;99.90
16846;DHT22;8539;53.188;8.696;2024-02-21T08:03:38;8.30;99.90
16846;DHT22;8539;53.188;8.696;2024-02-21T08:06:05;8.30;99.90
16846;DHT22;8539;53.188;8.696;2024-02-21T08:08:32;8.30;99.90
16846;DHT22;8539;53.188;8.696;2024-02-21T08:11:00;8.40;99.90
16846;DHT22;8539;53.188;8.696;2024-02-21T08:13:28;8.40;99.90
16846;DHT22;8539;53.188;8.696;2024-02-21T08:15:56;8.50;99.90
16846;DHT22;8539;53.188;8.696;2024-02-21T08:18:24;8.50;99.90
16846;DHT22;8539;53.188;8.696;2024-02-21T08:20:51;8.50;99.90
16846;DHT22;8539;53.188;8.696;2024-02-21T08:23:19;8.50;99.90
16846;DHT22;8539;53.188;8.696;2024-02-21T08:25:46;8.50;99.90
16846;DHT22;8539;53.188;8.696;2024-02-21T08:28:14;8.50;99.90
16846;DHT22;8539;53.188;8.696;2024-02-21T08:30:41;8.50;99.90
16846;DHT22;8539;53.188;8.696;2024-02-21T08:33:15;8.60;99.90
16846;DHT22;8539;53.188;8.696;2024-02-21T08:35:46;8.60;99.90
16846;DHT22;8539;53.188;8.696;2024-02-21T08:38:13;8.60;99.90
16846;DHT22;8539;53.188;8.696;2024-02-21T08:40:40;8.60;99.90
16846;DHT22;8539;53.188;8.696;2024-02-21T08:43:07;8.60;99.90
16846;DHT22;8539;53.188;8.696;2024-02-21T08:45:34;8.60;99.90
16846;DHT22;8539;53.188;8.696;2024-02-21T08:48:01;8.70;99.90
16846;DHT22;8539;53.188;8.696;2024-02-21T08:50:29;8.70;99.90
16846;DHT22;8539;53.188;8.696;2024-02-21T08:52:56;8.70;99.90
16846;DHT22;8539;53.188;8.696;2024-02-21T08:55:24;8.80;99.90
16846;DHT22;8539;53.188;8.696;2024-02-21T08:57:51;8.80;99.90
16846;DHT22;8539;53.188;8.696;2024-02-21T09:00:19;8.90;99.90
16846;DHT22;8539;53.188;8.696;2024-02-21T09:02:50;8.90;99.90
16846;DHT22;8539;53.188;8.696;2024-02-21T09:05:17;8.90;99.90
16846;DHT22;8539;53.188;8.696;2024-02-21T09:07:46;8.90;99.90
16846;DHT22;8539;53.188;8.696;2024-02-21T09:10:13;9.00;99.90
16846;DHT22;8539;53.188;8.696;2024-02-21T09:12:40;9.00;99.90
16846;DHT22;8539;53.188;8.696;2024-02-21T09:15:08;9.00;99.90
16846;DHT22;8539;53.188;8.696;2024-02-21T09:17:35;9.00;99.90
16846;DHT22;8539;53.188;8.696;2024-02-21T09:20:02;9.00;99.90
16846;DHT22;8539;53.188;8.696;2024-02-21T09:22:30;9.10;99.90
16846;DHT22;8539;53.188;8.696;2024-02-21T09:25:01;9.10;99.90
16846;DHT22;8539;53.188;8.696;2024-02-21T09:27:30;9.10;99.90
16846;DHT22;8539;53.188;8.696;2024-02-21T09:29:57;9.10;99.90
16846;DHT22;8539;53.188;8.696;2024-02-21T09:32:26;9.10;99.90
16846;DHT22;8539;53.188;8.696;2024-02-21T09:34:53;9.00;99.90
16846;DHT22;8539;53.188;8.696;2024-02-21T09:37:26;9.00;99.90
16846;DHT22;8539;53.188;8.696;2024-02-21T09:39:53;9.00;99.90
16846;DHT22;8539;53.188;8.696;2024-02-21T09:42:21;9.00;99.90
16846;DHT22;8539;53.188;8.696;2024-02-21T09:44:51;8.90;99.90
16846;DHT22;8539;53.188;8.696;2024-02-21T09:47:24;8.90;99.90
16846;DHT22;8539;53.188;8.696;2024-02-21T09:50:00;9.00;99.90
16846;DHT22;8539;53.188;8.696;2024-02-21T09:52:28;8.90;99.90
16846;DHT22;8539;53.188;8.696;2024-02-21T09:54:56;8.90;99.90
16846;DHT22;8539;53.188;8.696;2024-02-21T09:57:25;8.90;99.90
16846;DHT22;8539;53.188;8.696;2024-02-21T09:59:52;8.90;99.90
16846;DHT22;8539;53.188;8.696;2024-02-21T10:02:20;8.90;99.90
16846;DHT22;8539;53.188;8.696;2024-02-21T10:04:47;8.80;99.90
16846;DHT22;8539;53.188;8.696;2024-02-21T10:07:15;8.80;99.90
16846;DHT22;8539;53.188;8.696;2024-02-21T10:09:42;8.80;99.90
16846;DHT22;8539;53.188;8.696;2024-02-21T10:12:12;8.80;99.90
16846;DHT22;8539;53.188;8.696;2024-02-21T10:14:40;8.80;99.90
16846;DHT22;8539;53.188;8.696;2024-02-21T10:17:14;8.70;99.90
16846;DHT22;8539;53.188;8.696;2024-02-21T10:19:42;8.70;99.90
16846;DHT22;8539;53.188;8.696;2024-02-21T10:22:09;8.70;99.90
16846;DHT22;8539;53.188;8.696;2024-02-21T10:24:38;8.70;99.90
16846;DHT22;8539;53.188;8.696;2024-02-21T10:27:08;8.70;99.90
16846;DHT22;8539;53.188;8.696;2024-02-21T10:29:39;8.80;99.90
16846;DHT22;8539;53.188;8.696;2024-02-21T10:32:15;8.80;99.90
16846;DHT22;8539;53.188;8.696;2024-02-21T10:34:43;8.80;99.90
16846;DHT22;8539;53.188;8.696;2024-02-21T10:37:11;8.90;99.90
16846;DHT22;8539;53.188;8.696;2024-02-21T10:39:41;8.90;99.90
16846;DHT22;8539;53.188;8.696;2024-02-21T10:42:11;8.90;99.90
16846;DHT22;8539;53.188;8.696;2024-02-21T10:44:40;8.90;99.90
16846;DHT22;8539;53.188;8.696;2024-02-21T10:47:11;8.90;99.90
16846;DHT22;8539;53.188;8.696;2024-02-21T10:49:41;8.90;99.90
16846;DHT22;8539;53.188;8.696;2024-02-21T10:55:20;8.90;99.90
16846;DHT22;8539;53.188;8.696;2024-02-21T10:57:46;8.90;99.90
16846;DHT22;8539;53.188;8.696;2024-02-21T11:00:17;8.90;99.90
16846;DHT22;8539;53.188;8.696;2024-02-21T11:02:47;9.00;99.90
16846;DHT22;8539;53.188;8.696;2024-02-21T11:05:15;9.00;99.90
16846;DHT22;8539;53.188;8.696;2024-02-21T11:07:43;9.10;99.90
16846;DHT22;8539;53.188;8.696;2024-02-21T11:10:24;9.10;99.90
16846;DHT22;8539;53.188;8.696;2024-02-21T11:13:10;9.10;99.90
16846;DHT22;8539;53.188;8.696;2024-02-21T11:15:37;9.10;99.90
16846;DHT22;8539;53.188;8.696;2024-02-21T11:18:05;9.10;99.90
16846;DHT22;8539;53.188;8.696;2024-02-21T11:20:34;9.10;99.90
16846;DHT22;8539;53.188;8.696;2024-02-21T11:23:02;9.20;99.90
16846;DHT22;8539;53.188;8.696;2024-02-21T11:25:29;9.30;99.90
16846;DHT22;8539;53.188;8.696;2024-02-21T11:28:03;9.40;99.90
16846;DHT22;8539;53.188;8.696;2024-02-21T11:30:31;9.50;99.90
16846;DHT22;8539;53.188;8.696;2024-02-21T11:33:01;9.60;99.90
16846;DHT22;8539;53.188;8.696;2024-02-21T11:35:36;9.80;99.90
16846;DHT22;8539;53.188;8.696;2024-02-21T11:38:11;9.90;99.90
16846;DHT22;8539;53.188;8.696;2024-02-21T11:40:46;10.00;99.90
16846;DHT22;8539;53.188;8.696;2024-02-21T11:43:15;10.10;99.90
16846;DHT22;8539;53.188;8.696;2024-02-21T11:45:43;10.10;99.90
16846;DHT22;8539;53.188;8.696;2024-02-21T11:48:10;10.20;99.90
16846;DHT22;8539;53.188;8.696;2024-02-21T11:50:38;10.20;99.90
16846;DHT22;8539;53.188;8.696;2024-02-21T11:53:06;10.20;99.90
16846;DHT22;8539;53.188;8.696;2024-02-21T11:55:34;10.30;99.90
16846;DHT22;8539;53.188;8.696;2024-02-21T11:58:01;10.30;99.90
16846;DHT22;8539;53.188;8.696;2024-02-21T12:00:30;10.30;99.90
16846;DHT22;8539;53.188;8.696;2024-02-21T12:02:58;10.20;99.90
16846;DHT22;8539;53.188;8.696;2024-02-21T12:05:29;10.20;99.90
16846;DHT22;8539;53.188;8.696;2024-02-21T12:07:58;10.30;99.90
16846;DHT22;8539;53.188;8.696;2024-02-21T12:10:27;10.30;99.90
16846;DHT22;8539;53.188;8.696;2024-02-21T12:13:05;10.20;99.90
16846;DHT22;8539;53.188;8.696;2024-02-21T12:15:34;10.20;99.90
16846;DHT22;8539;53.188;8.696;2024-02-21T12:18:02;10.20;99.90
16846;DHT22;8539;53.188;8.696;2024-02-21T12:20:31;10.20;99.90
16846;DHT22;8539;53.188;8.696;2024-02-21T12:23:02;10.20;99.90
16846;DHT22;8539;53.188;8.696;2024-02-21T12:25:31;10.20;99.90
16846;DHT22;8539;53.188;8.696;2024-02-21T12:28:00;10.30;99.90
16846;DHT22;8539;53.188;8.696;2024-02-21T12:30:31;10.30;99.90
16846;DHT22;8539;53.188;8.696;2024-02-21T12:33:01;10.30;99.90
16846;DHT22;8539;53.188;8.696;2024-02-21T12:35:29;10.30;99.90
16846;DHT22;8539;53.188;8.696;2024-02-21T12:38:01;10.30;99.90
16846;DHT22;8539;53.188;8.696;2024-02-21T12:40:29;10.30;99.90
16846;DHT22;8539;53.188;8.696;2024-02-21T12:43:00;10.30;99.90
16846;DHT22;8539;53.188;8.696;2024-02-21T12:45:31;10.40;99.90
16846;DHT22;8539;53.188;8.696;2024-02-21T12:47:58;10.30;99.90
16846;DHT22;8539;53.188;8.696;2024-02-21T12:50:25;10.30;99.90
16846;DHT22;8539;53.188;8.696;2024-02-21T12:52:53;10.30;99.90
16846;DHT22;8539;53.188;8.696;2024-02-21T12:55:20;10.30;99.90
16846;DHT22;8539;53.188;8.696;2024-02-21T12:57:47;10.20;99.90
16846;DHT22;8539;53.188;8.696;2024-02-21T13:00:15;10.30;99.90
16846;DHT22;8539;53.188;8.696;2024-02-21T13:02:43;10.30;99.90
16846;DHT22;8539;53.188;8.696;2024-02-21T13:05:10;10.30;99.90
16846;DHT22;8539;53.188;8.696;2024-02-21T13:07:37;10.30;99.90
16846;DHT22;8539;53.188;8.696;2024-02-21T13:10:05;10.30;99.90
16846;DHT22;8539;53.188;8.696;2024-02-21T13:12:32;10.30;99.90
16846;DHT22;8539;53.188;8.696;2024-02-21T13:15:00;10.40;99.90
16846;DHT22;8539;53.188;8.696;2024-02-21T13:17:27;10.40;99.90
16846;DHT22;8539;53.188;8.696;2024-02-21T13:19:57;10.30;99.90
16846;DHT22;8539;53.188;8.696;2024-02-21T13:22:25;10.30;99.90
16846;DHT22;8539;53.188;8.696;2024-02-21T13:24:55;10.40;99.90
16846;DHT22;8539;53.188;8.696;2024-02-21T13:27:24;10.40;99.90
16846;DHT22;8539;53.188;8.696;2024-02-21T13:29:51;10.50;99.90
16846;DHT22;8539;53.188;8.696;2024-02-21T13:32:20;10.50;99.90
16846;DHT22;8539;53.188;8.696;2024-02-21T13:34:47;10.50;99.90
16846;DHT22;8539;53.188;8.696;2024-02-21T13:37:15;10.50;99.90
16846;DHT22;8539;53.188;8.696;2024-02-21T13:39:42;10.60;99.90
16846;DHT22;8539;53.188;8.696;2024-02-21T13:42:09;10.60;99.90
16846;DHT22;8539;53.188;8.696;2024-02-21T13:44:37;10.60;99.90
16846;DHT22;8539;53.188;8.696;2024-02-21T13:47:04;10.60;99.90
16846;DHT22;8539;53.188;8.696;2024-02-21T13:49:31;10.60;99.90
16846;DHT22;8539;53.188;8.696;2024-02-21T13:51:59;10.60;99.90
16846;DHT22;8539;53.188;8.696;2024-02-21T13:54:27;10.50;99.90
16846;DHT22;8539;53.188;8.696;2024-02-21T13:56:54;10.50;99.90
16846;DHT22;8539;53.188;8.696;2024-02-21T13:59:21;10.50;99.90
16846;DHT22;8539;53.188;8.696;2024-02-21T14:01:48;10.40;99.90
16846;DHT22;8539;53.188;8.696;2024-02-21T14:04:15;10.30;99.90
16846;DHT22;8539;53.188;8.696;2024-02-21T14:06:42;10.30;99.90
16846;DHT22;8539;53.188;8.696;2024-02-21T14:09:10;10.30;99.90
16846;DHT22;8539;53.188;8.696;2024-02-21T14:11:37;10.30;99.90
16846;DHT22;8539;53.188;8.696;2024-02-21T14:14:05;10.30;99.90
16846;DHT22;8539;53.188;8.696;2024-02-21T14:16:33;10.30;99.90
16846;DHT22;8539;53.188;8.696;2024-02-21T14:19:00;10.30;99.90
16846;DHT22;8539;53.188;8.696;2024-02-21T14:21:28;10.30;99.90
16846;DHT22;8539;53.188;8.696;2024-02-21T14:23:56;10.30;99.90
16846;DHT22;8539;53.188;8.696;2024-02-21T14:26:23;10.20;99.90
16846;DHT22;8539;53.188;8.696;2024-02-21T14:28:50;10.20;99.90
16846;DHT22;8539;53.188;8.696;2024-02-21T14:31:18;10.20;99.90
16846;DHT22;8539;53.188;8.696;2024-02-21T14:33:45;10.10;99.90
16846;DHT22;8539;53.188;8.696;2024-02-21T14:36:13;10.10;99.90
16846;DHT22;8539;53.188;8.696;2024-02-21T14:38:42;10.10;99.90
16846;DHT22;8539;53.188;8.696;2024-02-21T14:41:10;10.10;99.90
16846;DHT22;8539;53.188;8.696;2024-02-21T14:43:40;10.10;99.90
16846;DHT22;8539;53.188;8.696;2024-02-21T14:46:07;10.10;99.90
16846;DHT22;8539;53.188;8.696;2024-02-21T14:48:34;10.10;99.90
16846;DHT22;8539;53.188;8.696;2024-02-21T14:51:03;10.10;99.90
16846;DHT22;8539;53.188;8.696;2024-02-21T14:53:31;10.10;99.90
16846;DHT22;8539;53.188;8.696;2024-02-21T14:55:58;10.10;99.90
16846;DHT22;8539;53.188;8.696;2024-02-21T14:58:26;10.10;99.90
16846;DHT22;8539;53.188;8.696;2024-02-21T15:00:54;10.00;99.90
16846;DHT22;8539;53.188;8.696;2024-02-21T15:03:26;10.00;99.90
16846;DHT22;8539;53.188;8.696;2024-02-21T15:05:54;10.00;99.90
16846;DHT22;8539;53.188;8.696;2024-02-21T15:08:22;10.00;99.90
16846;DHT22;8539;53.188;8.696;2024-02-21T15:10:49;9.90;99.90
16846;DHT22;8539;53.188;8.696;2024-02-21T15:13:17;9.90;99.90
16846;DHT22;8539;53.188;8.696;2024-02-21T15:15:44;9.90;99.90
16846;DHT22;8539;53.188;8.696;2024-02-21T15:18:11;9.80;99.90
16846;DHT22;8539;53.188;8.696;2024-02-21T15:20:38;9.80;99.90
16846;DHT22;8539;53.188;8.696;2024-02-21T15:23:06;9.70;99.90
16846;DHT22;8539;53.188;8.696;2024-02-21T15:25:33;9.70;99.90
16846;DHT22;8539;53.188;8.696;2024-02-21T15:28:01;9.70;99.90
16846;DHT22;8539;53.188;8.696;2024-02-21T15:30:31;9.60;99.90
16846;DHT22;8539;53.188;8.696;2024-02-21T15:32:59;9.60;99.90
16846;DHT22;8539;53.188;8.696;2024-02-21T15:35:29;9.60;99.90
16846;DHT22;8539;53.188;8.696;2024-02-21T15:37:57;9.60;99.90
16846;DHT22;8539;53.188;8.696;2024-02-21T15:40:25;9.50;99.90
16846;DHT22;8539;53.188;8.696;2024-02-21T15:42:52;9.50;99.90
16846;DHT22;8539;53.188;8.696;2024-02-21T15:45:19;9.50;99.90
16846;DHT22;8539;53.188;8.696;2024-02-21T15:47:46;9.50;99.90
16846;DHT22;8539;53.188;8.696;2024-02-21T15:50:13;9.50;99.90
16846;DHT22;8539;53.188;8.696;2024-02-21T15:52:41;9.40;99.90
16846;DHT22;8539;53.188;8.696;2024-02-21T15:55:08;9.40;99.90
16846;DHT22;8539;53.188;8.696;2024-02-21T15:57:38;9.40;99.90
16846;DHT22;8539;53.188;8.696;2024-02-21T16:00:06;9.40;99.90
16846;DHT22;8539;53.188;8.696;2024-02-21T16:02:39;9.40;99.90
16846;DHT22;8539;53.188;8.696;2024-02-21T16:05:08;9.30;99.90
16846;DHT22;8539;53.188;8.696;2024-02-21T16:07:37;9.30;99.90